sensor_id;sensor_type;location;lat;lon;timestamp;P1;durP1;ratioP1;P2;durP2;ratioP2
15929;SDS011;8064;51.142;4.780;2023-06-26T00:00:17;4.03;;;3.72;;
15929;SDS011;8064;51.142;4.780;2023-06-26T00:02:43;4.90;;;3.47;;
15929;SDS011;8064;51.142;4.780;2023-06-26T00:05:08;4.90;;;4.10;;
15929;SDS011;8064;51.142;4.780;2023-06-26T00:07:34;6.07;;;3.70;;
15929;SDS011;8064;51.142;4.780;2023-06-26T00:10:00;4.43;;;3.78;;
15929;SDS011;8064;51.142;4.780;2023-06-26T00:12:28;5.93;;;3.88;;
15929;SDS011;8064;51.142;4.780;2023-06-26T00:14:54;6.47;;;3.95;;
15929;SDS011;8064;51.142;4.780;2023-06-26T00:17:20;4.43;;;4.00;;
15929;SDS011;8064;51.142;4.780;2023-06-26T00:19:46;6.18;;;4.13;;
15929;SDS011;8064;51.142;4.780;2023-06-26T00:22:13;4.18;;;3.63;;
15929;SDS011;8064;51.142;4.780;2023-06-26T00:24:39;6.30;;;3.83;;
15929;SDS011;8064;51.142;4.780;2023-06-26T00:27:04;4.80;;;3.95;;
15929;SDS011;8064;51.142;4.780;2023-06-26T00:29:30;5.63;;;3.83;;
15929;SDS011;8064;51.142;4.780;2023-06-26T00:31:56;6.10;;;3.80;;
15929;SDS011;8064;51.142;4.780;2023-06-26T00:34:22;3.55;;;3.17;;
15929;SDS011;8064;51.142;4.780;2023-06-26T00:36:47;6.90;;;3.60;;
15929;SDS011;8064;51.142;4.780;2023-06-26T00:39:13;4.78;;;3.00;;
15929;SDS011;8064;51.142;4.780;2023-06-26T00:41:39;3.42;;;3.13;;
15929;SDS011;8064;51.142;4.780;2023-06-26T00:44:05;4.15;;;3.22;;
15929;SDS011;8064;51.142;4.780;2023-06-26T00:46:31;3.92;;;2.80;;
15929;SDS011;8064;51.142;4.780;2023-06-26T00:48:58;4.15;;;2.95;;
15929;SDS011;8064;51.142;4.780;2023-06-26T00:51:25;4.20;;;3.20;;
15929;SDS011;8064;51.142;4.780;2023-06-26T00:53:53;6.90;;;3.17;;
15929;SDS011;8064;51.142;4.780;2023-06-26T00:56:19;3.78;;;3.00;;
15929;SDS011;8064;51.142;4.780;2023-06-26T00:58:45;3.45;;;3.10;;
15929;SDS011;8064;51.142;4.780;2023-06-26T01:01:11;5.95;;;3.17;;
15929;SDS011;8064;51.142;4.780;2023-06-26T01:03:53;3.88;;;3.22;;
15929;SDS011;8064;51.142;4.780;2023-06-26T01:06:20;4.43;;;3.13;;
15929;SDS011;8064;51.142;4.780;2023-06-26T01:08:47;4.63;;;3.35;;
15929;SDS011;8064;51.142;4.780;2023-06-26T01:11:13;6.07;;;3.33;;
15929;SDS011;8064;51.142;4.780;2023-06-26T01:13:40;3.78;;;2.90;;
15929;SDS011;8064;51.142;4.780;2023-06-26T01:16:09;3.75;;;3.25;;
15929;SDS011;8064;51.142;4.780;2023-06-26T01:18:35;4.63;;;3.22;;
15929;SDS011;8064;51.142;4.780;2023-06-26T01:21:06;4.07;;;3.13;;
15929;SDS011;8064;51.142;4.780;2023-06-26T01:23:47;3.75;;;3.35;;
15929;SDS011;8064;51.142;4.780;2023-06-26T01:26:34;4.38;;;3.30;;
15929;SDS011;8064;51.142;4.780;2023-06-26T01:29:02;3.28;;;2.85;;
15929;SDS011;8064;51.142;4.780;2023-06-26T01:31:31;3.55;;;3.22;;
15929;SDS011;8064;51.142;4.780;2023-06-26T01:33:58;3.38;;;3.05;;
15929;SDS011;8064;51.142;4.780;2023-06-26T01:36:26;4.50;;;3.72;;
15929;SDS011;8064;51.142;4.780;2023-06-26T01:38:52;6.05;;;3.40;;
15929;SDS011;8064;51.142;4.780;2023-06-26T01:41:18;4.22;;;2.90;;
15929;SDS011;8064;51.142;4.780;2023-06-26T01:46:45;6.05;;;3.20;;
15929;SDS011;8064;51.142;4.780;2023-06-26T01:54:25;8.82;;;3.55;;
15929;SDS011;8064;51.142;4.780;2023-06-26T01:56:55;4.35;;;3.17;;
15929;SDS011;8064;51.142;4.780;2023-06-26T01:59:23;3.30;;;3.00;;
15929;SDS011;8064;51.142;4.780;2023-06-26T02:01:52;4.75;;;3.63;;
15929;SDS011;8064;51.142;4.780;2023-06-26T02:04:17;3.72;;;2.92;;
15929;SDS011;8064;51.142;4.780;2023-06-26T02:06:43;4.53;;;3.30;;
15929;SDS011;8064;51.142;4.780;2023-06-26T02:09:09;3.80;;;3.00;;
15929;SDS011;8064;51.142;4.780;2023-06-26T02:11:35;6.60;;;3.72;;
15929;SDS011;8064;51.142;4.780;2023-06-26T02:14:00;5.63;;;3.10;;
15929;SDS011;8064;51.142;4.780;2023-06-26T02:16:26;5.78;;;2.85;;
15929;SDS011;8064;51.142;4.780;2023-06-26T02:18:52;6.93;;;3.15;;
15929;SDS011;8064;51.142;4.780;2023-06-26T02:21:18;5.82;;;3.42;;
15929;SDS011;8064;51.142;4.780;2023-06-26T02:23:43;5.05;;;3.33;;
15929;SDS011;8064;51.142;4.780;2023-06-26T02:26:09;5.00;;;3.15;;
15929;SDS011;8064;51.142;4.780;2023-06-26T02:28:36;9.35;;;2.92;;
15929;SDS011;8064;51.142;4.780;2023-06-26T02:31:01;6.93;;;3.28;;
15929;SDS011;8064;51.142;4.780;2023-06-26T02:33:27;7.00;;;3.20;;
15929;SDS011;8064;51.142;4.780;2023-06-26T02:35:53;7.75;;;3.40;;
15929;SDS011;8064;51.142;4.780;2023-06-26T02:38:19;6.53;;;3.50;;
15929;SDS011;8064;51.142;4.780;2023-06-26T02:40:44;5.65;;;3.25;;
15929;SDS011;8064;51.142;4.780;2023-06-26T02:43:10;5.55;;;3.17;;
15929;SDS011;8064;51.142;4.780;2023-06-26T02:45:36;7.40;;;3.38;;
15929;SDS011;8064;51.142;4.780;2023-06-26T02:48:02;7.53;;;3.40;;
15929;SDS011;8064;51.142;4.780;2023-06-26T02:50:28;5.82;;;3.13;;
15929;SDS011;8064;51.142;4.780;2023-06-26T02:52:53;5.57;;;3.40;;
15929;SDS011;8064;51.142;4.780;2023-06-26T02:55:19;5.75;;;3.60;;
15929;SDS011;8064;51.142;4.780;2023-06-26T02:57:46;5.43;;;3.42;;
15929;SDS011;8064;51.142;4.780;2023-06-26T03:00:12;6.15;;;3.47;;
15929;SDS011;8064;51.142;4.780;2023-06-26T03:02:38;6.57;;;3.63;;
15929;SDS011;8064;51.142;4.780;2023-06-26T03:05:04;5.53;;;2.95;;
15929;SDS011;8064;51.142;4.780;2023-06-26T03:07:30;7.60;;;3.50;;
15929;SDS011;8064;51.142;4.780;2023-06-26T03:09:56;7.07;;;3.65;;
15929;SDS011;8064;51.142;4.780;2023-06-26T03:12:22;5.55;;;3.35;;
15929;SDS011;8064;51.142;4.780;2023-06-26T03:14:47;6.70;;;3.28;;
15929;SDS011;8064;51.142;4.780;2023-06-26T03:17:13;6.32;;;3.65;;
15929;SDS011;8064;51.142;4.780;2023-06-26T03:19:39;5.43;;;3.53;;
15929;SDS011;8064;51.142;4.780;2023-06-26T03:22:05;6.32;;;3.42;;
15929;SDS011;8064;51.142;4.780;2023-06-26T03:24:30;8.23;;;4.03;;
15929;SDS011;8064;51.142;4.780;2023-06-26T03:26:56;4.25;;;3.20;;
15929;SDS011;8064;51.142;4.780;2023-06-26T03:29:22;7.18;;;3.90;;
15929;SDS011;8064;51.142;4.780;2023-06-26T03:31:48;9.63;;;3.47;;
15929;SDS011;8064;51.142;4.780;2023-06-26T03:34:13;6.78;;;3.33;;
15929;SDS011;8064;51.142;4.780;2023-06-26T03:36:39;7.90;;;3.53;;
15929;SDS011;8064;51.142;4.780;2023-06-26T03:39:06;5.13;;;3.25;;
15929;SDS011;8064;51.142;4.780;2023-06-26T03:41:32;5.60;;;3.40;;
15929;SDS011;8064;51.142;4.780;2023-06-26T03:43:57;5.97;;;3.55;;
15929;SDS011;8064;51.142;4.780;2023-06-26T03:46:25;8.95;;;4.20;;
15929;SDS011;8064;51.142;4.780;2023-06-26T03:48:51;6.50;;;3.65;;
15929;SDS011;8064;51.142;4.780;2023-06-26T03:51:16;6.07;;;3.25;;
15929;SDS011;8064;51.142;4.780;2023-06-26T03:53:42;6.68;;;3.75;;
15929;SDS011;8064;51.142;4.780;2023-06-26T03:56:08;7.05;;;3.55;;
15929;SDS011;8064;51.142;4.780;2023-06-26T03:58:34;6.80;;;3.20;;
15929;SDS011;8064;51.142;4.780;2023-06-26T04:01:00;5.95;;;3.70;;
15929;SDS011;8064;51.142;4.780;2023-06-26T04:03:26;6.80;;;3.50;;
15929;SDS011;8064;51.142;4.780;2023-06-26T04:05:51;9.15;;;3.70;;
15929;SDS011;8064;51.142;4.780;2023-06-26T04:08:17;11.30;;;3.70;;
15929;SDS011;8064;51.142;4.780;2023-06-26T04:10:44;7.07;;;3.53;;
15929;SDS011;8064;51.142;4.780;2023-06-26T04:13:10;11.07;;;3.72;;
15929;SDS011;8064;51.142;4.780;2023-06-26T04:15:37;8.17;;;3.40;;
15929;SDS011;8064;51.142;4.780;2023-06-26T04:18:02;9.88;;;4.00;;
15929;SDS011;8064;51.142;4.780;2023-06-26T04:20:28;11.23;;;3.75;;
15929;SDS011;8064;51.142;4.780;2023-06-26T04:22:54;8.43;;;3.35;;
15929;SDS011;8064;51.142;4.780;2023-06-26T04:25:20;9.50;;;3.60;;
15929;SDS011;8064;51.142;4.780;2023-06-26T04:27:45;8.43;;;3.80;;
15929;SDS011;8064;51.142;4.780;2023-06-26T04:30:11;9.57;;;4.33;;
15929;SDS011;8064;51.142;4.780;2023-06-26T04:32:38;9.70;;;3.80;;
15929;SDS011;8064;51.142;4.780;2023-06-26T04:35:03;7.50;;;3.25;;
15929;SDS011;8064;51.142;4.780;2023-06-26T04:37:29;11.27;;;3.55;;
15929;SDS011;8064;51.142;4.780;2023-06-26T04:39:55;9.82;;;3.85;;
15929;SDS011;8064;51.142;4.780;2023-06-26T04:42:21;6.68;;;3.33;;
15929;SDS011;8064;51.142;4.780;2023-06-26T04:44:47;13.02;;;3.83;;
15929;SDS011;8064;51.142;4.780;2023-06-26T04:47:12;9.95;;;3.60;;
15929;SDS011;8064;51.142;4.780;2023-06-26T04:49:40;7.50;;;3.17;;
15929;SDS011;8064;51.142;4.780;2023-06-26T04:52:10;8.68;;;3.58;;
15929;SDS011;8064;51.142;4.780;2023-06-26T04:54:38;12.52;;;3.70;;
15929;SDS011;8064;51.142;4.780;2023-06-26T04:57:04;10.45;;;3.42;;
15929;SDS011;8064;51.142;4.780;2023-06-26T04:59:30;8.25;;;3.65;;
15929;SDS011;8064;51.142;4.780;2023-06-26T05:01:56;8.00;;;3.50;;
15929;SDS011;8064;51.142;4.780;2023-06-26T05:04:22;10.25;;;3.83;;
15929;SDS011;8064;51.142;4.780;2023-06-26T05:06:48;9.10;;;3.35;;
15929;SDS011;8064;51.142;4.780;2023-06-26T05:09:14;9.40;;;3.85;;
15929;SDS011;8064;51.142;4.780;2023-06-26T05:11:40;10.43;;;3.72;;
15929;SDS011;8064;51.142;4.780;2023-06-26T05:14:05;10.38;;;3.60;;
15929;SDS011;8064;51.142;4.780;2023-06-26T05:16:34;10.27;;;3.60;;
15929;SDS011;8064;51.142;4.780;2023-06-26T05:19:00;7.75;;;3.40;;
15929;SDS011;8064;51.142;4.780;2023-06-26T05:21:26;11.43;;;3.40;;
15929;SDS011;8064;51.142;4.780;2023-06-26T05:23:52;9.87;;;3.40;;
15929;SDS011;8064;51.142;4.780;2023-06-26T05:26:21;8.20;;;3.38;;
15929;SDS011;8064;51.142;4.780;2023-06-26T05:28:47;8.05;;;3.05;;
15929;SDS011;8064;51.142;4.780;2023-06-26T05:31:14;8.23;;;3.50;;
15929;SDS011;8064;51.142;4.780;2023-06-26T05:33:41;10.20;;;3.33;;
15929;SDS011;8064;51.142;4.780;2023-06-26T05:36:10;8.27;;;3.50;;
15929;SDS011;8064;51.142;4.780;2023-06-26T05:38:39;10.77;;;4.05;;
15929;SDS011;8064;51.142;4.780;2023-06-26T05:41:05;12.20;;;3.40;;
15929;SDS011;8064;51.142;4.780;2023-06-26T05:43:33;7.38;;;2.83;;
15929;SDS011;8064;51.142;4.780;2023-06-26T05:46:19;11.35;;;3.80;;
15929;SDS011;8064;51.142;4.780;2023-06-26T05:48:45;8.48;;;2.90;;
15929;SDS011;8064;51.142;4.780;2023-06-26T05:51:12;12.82;;;3.33;;
15929;SDS011;8064;51.142;4.780;2023-06-26T05:53:38;9.82;;;2.90;;
15929;SDS011;8064;51.142;4.780;2023-06-26T05:56:04;8.63;;;2.97;;
15929;SDS011;8064;51.142;4.780;2023-06-26T05:58:31;8.60;;;2.92;;
15929;SDS011;8064;51.142;4.780;2023-06-26T06:00:57;7.75;;;2.80;;
15929;SDS011;8064;51.142;4.780;2023-06-26T06:03:23;7.93;;;2.83;;
15929;SDS011;8064;51.142;4.780;2023-06-26T06:05:49;8.48;;;3.45;;
15929;SDS011;8064;51.142;4.780;2023-06-26T06:08:15;7.43;;;2.63;;
15929;SDS011;8064;51.142;4.780;2023-06-26T06:10:41;12.45;;;3.10;;
15929;SDS011;8064;51.142;4.780;2023-06-26T06:13:06;9.50;;;2.92;;
15929;SDS011;8064;51.142;4.780;2023-06-26T06:15:32;5.82;;;2.60;;
15929;SDS011;8064;51.142;4.780;2023-06-26T06:17:58;13.52;;;3.42;;
15929;SDS011;8064;51.142;4.780;2023-06-26T06:20:24;14.35;;;3.15;;
15929;SDS011;8064;51.142;4.780;2023-06-26T06:22:50;8.68;;;3.25;;
15929;SDS011;8064;51.142;4.780;2023-06-26T06:25:16;9.10;;;3.10;;
15929;SDS011;8064;51.142;4.780;2023-06-26T06:27:42;10.68;;;2.88;;
15929;SDS011;8064;51.142;4.780;2023-06-26T06:30:08;8.80;;;2.45;;
15929;SDS011;8064;51.142;4.780;2023-06-26T06:32:34;8.23;;;2.92;;
15929;SDS011;8064;51.142;4.780;2023-06-26T06:35:00;7.88;;;2.47;;
15929;SDS011;8064;51.142;4.780;2023-06-26T06:37:33;9.80;;;2.70;;
15929;SDS011;8064;51.142;4.780;2023-06-26T06:39:59;7.57;;;2.85;;
15929;SDS011;8064;51.142;4.780;2023-06-26T06:42:25;11.07;;;2.65;;
15929;SDS011;8064;51.142;4.780;2023-06-26T06:44:51;6.57;;;2.67;;
15929;SDS011;8064;51.142;4.780;2023-06-26T06:47:16;9.10;;;3.00;;
15929;SDS011;8064;51.142;4.780;2023-06-26T06:49:42;6.97;;;2.55;;
15929;SDS011;8064;51.142;4.780;2023-06-26T06:52:09;6.65;;;2.40;;
15929;SDS011;8064;51.142;4.780;2023-06-26T06:54:50;9.57;;;2.90;;
15929;SDS011;8064;51.142;4.780;2023-06-26T06:57:17;10.40;;;2.17;;
15929;SDS011;8064;51.142;4.780;2023-06-26T06:59:43;10.73;;;2.78;;
15929;SDS011;8064;51.142;4.780;2023-06-26T07:02:10;4.72;;;1.95;;
15929;SDS011;8064;51.142;4.780;2023-06-26T07:04:35;7.90;;;2.55;;
15929;SDS011;8064;51.142;4.780;2023-06-26T07:07:01;9.05;;;2.75;;
15929;SDS011;8064;51.142;4.780;2023-06-26T07:09:27;7.05;;;2.22;;
15929;SDS011;8064;51.142;4.780;2023-06-26T07:11:53;10.75;;;2.00;;
15929;SDS011;8064;51.142;4.780;2023-06-26T07:14:18;5.95;;;1.90;;
15929;SDS011;8064;51.142;4.780;2023-06-26T07:16:44;7.95;;;2.45;;
15929;SDS011;8064;51.142;4.780;2023-06-26T07:19:10;7.35;;;1.77;;
15929;SDS011;8064;51.142;4.780;2023-06-26T07:21:36;12.88;;;2.22;;
15929;SDS011;8064;51.142;4.780;2023-06-26T07:24:01;7.50;;;2.03;;
15929;SDS011;8064;51.142;4.780;2023-06-26T07:26:27;7.93;;;2.50;;
15929;SDS011;8064;51.142;4.780;2023-06-26T07:28:53;6.60;;;2.20;;
15929;SDS011;8064;51.142;4.780;2023-06-26T07:31:21;5.93;;;1.90;;
15929;SDS011;8064;51.142;4.780;2023-06-26T07:33:47;6.40;;;2.13;;
15929;SDS011;8064;51.142;4.780;2023-06-26T07:36:13;6.38;;;1.85;;
15929;SDS011;8064;51.142;4.780;2023-06-26T07:38:39;6.10;;;2.30;;
15929;SDS011;8064;51.142;4.780;2023-06-26T07:41:04;5.38;;;1.77;;
15929;SDS011;8064;51.142;4.780;2023-06-26T07:43:30;11.85;;;2.20;;
15929;SDS011;8064;51.142;4.780;2023-06-26T07:45:56;6.28;;;1.65;;
15929;SDS011;8064;51.142;4.780;2023-06-26T07:48:24;7.28;;;1.85;;
15929;SDS011;8064;51.142;4.780;2023-06-26T07:50:50;6.22;;;1.60;;
15929;SDS011;8064;51.142;4.780;2023-06-26T07:53:16;6.90;;;1.92;;
15929;SDS011;8064;51.142;4.780;2023-06-26T07:55:42;5.40;;;1.50;;
15929;SDS011;8064;51.142;4.780;2023-06-26T07:58:08;4.05;;;1.40;;
15929;SDS011;8064;51.142;4.780;2023-06-26T08:00:34;5.95;;;1.73;;
15929;SDS011;8064;51.142;4.780;2023-06-26T08:03:00;4.43;;;1.55;;
15929;SDS011;8064;51.142;4.780;2023-06-26T08:05:26;5.70;;;1.42;;
15929;SDS011;8064;51.142;4.780;2023-06-26T08:07:52;3.10;;;1.15;;
15929;SDS011;8064;51.142;4.780;2023-06-26T08:10:17;3.35;;;1.30;;
15929;SDS011;8064;51.142;4.780;2023-06-26T08:12:43;7.07;;;1.60;;
15929;SDS011;8064;51.142;4.780;2023-06-26T08:15:10;5.05;;;1.13;;
15929;SDS011;8064;51.142;4.780;2023-06-26T08:17:37;5.18;;;1.13;;
15929;SDS011;8064;51.142;4.780;2023-06-26T08:20:03;4.60;;;1.75;;
15929;SDS011;8064;51.142;4.780;2023-06-26T08:22:30;4.78;;;1.58;;
15929;SDS011;8064;51.142;4.780;2023-06-26T08:24:55;4.03;;;1.38;;
15929;SDS011;8064;51.142;4.780;2023-06-26T08:27:21;4.30;;;1.65;;
15929;SDS011;8064;51.142;4.780;2023-06-26T08:29:47;4.32;;;1.45;;
15929;SDS011;8064;51.142;4.780;2023-06-26T08:32:13;3.55;;;1.60;;
15929;SDS011;8064;51.142;4.780;2023-06-26T08:34:39;4.30;;;1.60;;
15929;SDS011;8064;51.142;4.780;2023-06-26T08:37:04;4.88;;;1.50;;
15929;SDS011;8064;51.142;4.780;2023-06-26T08:39:30;4.47;;;1.65;;
15929;SDS011;8064;51.142;4.780;2023-06-26T08:41:56;5.93;;;1.58;;
15929;SDS011;8064;51.142;4.780;2023-06-26T08:44:22;8.75;;;1.33;;
15929;SDS011;8064;51.142;4.780;2023-06-26T08:46:50;6.80;;;1.60;;
15929;SDS011;8064;51.142;4.780;2023-06-26T08:49:18;3.65;;;1.13;;
15929;SDS011;8064;51.142;4.780;2023-06-26T08:51:50;7.00;;;1.42;;
15929;SDS011;8064;51.142;4.780;2023-06-26T08:54:21;4.25;;;1.50;;
15929;SDS011;8064;51.142;4.780;2023-06-26T08:56:53;4.60;;;1.00;;
15929;SDS011;8064;51.142;4.780;2023-06-26T08:59:21;4.70;;;1.55;;
15929;SDS011;8064;51.142;4.780;2023-06-26T09:01:47;5.07;;;1.27;;
15929;SDS011;8064;51.142;4.780;2023-06-26T09:04:13;6.55;;;1.67;;
15929;SDS011;8064;51.142;4.780;2023-06-26T09:06:39;2.97;;;1.13;;
15929;SDS011;8064;51.142;4.780;2023-06-26T09:09:05;5.63;;;1.40;;
15929;SDS011;8064;51.142;4.780;2023-06-26T09:11:30;3.17;;;1.38;;
15929;SDS011;8064;51.142;4.780;2023-06-26T09:13:56;4.18;;;1.15;;
15929;SDS011;8064;51.142;4.780;2023-06-26T09:16:24;3.40;;;1.20;;
15929;SDS011;8064;51.142;4.780;2023-06-26T09:18:51;2.85;;;1.00;;
15929;SDS011;8064;51.142;4.780;2023-06-26T09:21:17;4.60;;;1.10;;
15929;SDS011;8064;51.142;4.780;2023-06-26T09:23:44;7.20;;;1.35;;
15929;SDS011;8064;51.142;4.780;2023-06-26T09:26:10;3.42;;;1.35;;
15929;SDS011;8064;51.142;4.780;2023-06-26T09:28:37;3.88;;;1.33;;
15929;SDS011;8064;51.142;4.780;2023-06-26T09:31:04;4.13;;;1.55;;
15929;SDS011;8064;51.142;4.780;2023-06-26T09:33:41;3.47;;;1.15;;
15929;SDS011;8064;51.142;4.780;2023-06-26T09:36:08;6.80;;;1.15;;
15929;SDS011;8064;51.142;4.780;2023-06-26T09:38:43;2.78;;;1.30;;
15929;SDS011;8064;51.142;4.780;2023-06-26T09:41:08;2.83;;;1.30;;
15929;SDS011;8064;51.142;4.780;2023-06-26T09:43:34;4.00;;;1.35;;
15929;SDS011;8064;51.142;4.780;2023-06-26T09:46:15;4.43;;;1.38;;
15929;SDS011;8064;51.142;4.780;2023-06-26T09:48:42;4.78;;;1.20;;
15929;SDS011;8064;51.142;4.780;2023-06-26T09:51:08;7.43;;;1.38;;
15929;SDS011;8064;51.142;4.780;2023-06-26T09:53:34;4.97;;;1.30;;
15929;SDS011;8064;51.142;4.780;2023-06-26T09:58:43;4.43;;;1.42;;
15929;SDS011;8064;51.142;4.780;2023-06-26T10:01:09;2.53;;;1.20;;
15929;SDS011;8064;51.142;4.780;2023-06-26T10:03:35;3.58;;;1.42;;
15929;SDS011;8064;51.142;4.780;2023-06-26T10:06:02;2.88;;;1.20;;
15929;SDS011;8064;51.142;4.780;2023-06-26T10:08:28;4.00;;;1.13;;
15929;SDS011;8064;51.142;4.780;2023-06-26T10:10:55;4.75;;;1.50;;
15929;SDS011;8064;51.142;4.780;2023-06-26T10:13:24;2.72;;;1.25;;
15929;SDS011;8064;51.142;4.780;2023-06-26T10:15:54;3.03;;;1.40;;
15929;SDS011;8064;51.142;4.780;2023-06-26T10:18:22;4.85;;;1.15;;
15929;SDS011;8064;51.142;4.780;2023-06-26T10:20:50;4.57;;;1.25;;
15929;SDS011;8064;51.142;4.780;2023-06-26T10:23:20;2.33;;;1.25;;
15929;SDS011;8064;51.142;4.780;2023-06-26T10:25:48;6.75;;;1.48;;
15929;SDS011;8064;51.142;4.780;2023-06-26T10:28:16;3.95;;;1.40;;
15929;SDS011;8064;51.142;4.780;2023-06-26T10:30:43;4.45;;;1.42;;
15929;SDS011;8064;51.142;4.780;2023-06-26T10:33:12;3.03;;;1.20;;
15929;SDS011;8064;51.142;4.780;2023-06-26T10:41:30;3.10;;;1.38;;
15929;SDS011;8064;51.142;4.780;2023-06-26T10:46:48;2.80;;;1.13;;
15929;SDS011;8064;51.142;4.780;2023-06-26T10:49:15;2.75;;;1.05;;
15929;SDS011;8064;51.142;4.780;2023-06-26T10:54:36;4.03;;;1.70;;
15929;SDS011;8064;51.142;4.780;2023-06-26T10:57:02;3.33;;;1.13;;
15929;SDS011;8064;51.142;4.780;2023-06-26T10:59:33;4.28;;;1.40;;
15929;SDS011;8064;51.142;4.780;2023-06-26T11:01:59;4.00;;;1.40;;
15929;SDS011;8064;51.142;4.780;2023-06-26T11:04:38;4.13;;;1.58;;
15929;SDS011;8064;51.142;4.780;2023-06-26T11:07:18;2.17;;;1.20;;
15929;SDS011;8064;51.142;4.780;2023-06-26T11:15:16;3.38;;;1.13;;
15929;SDS011;8064;51.142;4.780;2023-06-26T11:17:43;4.25;;;1.08;;
15929;SDS011;8064;51.142;4.780;2023-06-26T11:20:11;5.60;;;1.40;;
15929;SDS011;8064;51.142;4.780;2023-06-26T11:22:39;5.93;;;1.10;;
15929;SDS011;8064;51.142;4.780;2023-06-26T11:25:06;3.15;;;1.42;;
15929;SDS011;8064;51.142;4.780;2023-06-26T11:27:43;2.95;;;1.17;;
15929;SDS011;8064;51.142;4.780;2023-06-26T11:30:30;4.50;;;1.00;;
15929;SDS011;8064;51.142;4.780;2023-06-26T11:33:07;2.08;;;1.00;;
15929;SDS011;8064;51.142;4.780;2023-06-26T11:35:34;2.60;;;1.27;;
15929;SDS011;8064;51.142;4.780;2023-06-26T11:38:00;3.75;;;1.48;;
15929;SDS011;8064;51.142;4.780;2023-06-26T11:40:30;2.47;;;1.08;;
15929;SDS011;8064;51.142;4.780;2023-06-26T11:43:11;2.15;;;1.20;;
15929;SDS011;8064;51.142;4.780;2023-06-26T11:45:38;3.42;;;1.40;;
15929;SDS011;8064;51.142;4.780;2023-06-26T11:48:05;2.88;;;1.20;;
15929;SDS011;8064;51.142;4.780;2023-06-26T11:50:31;3.70;;;1.35;;
15929;SDS011;8064;51.142;4.780;2023-06-26T11:52:57;1.70;;;0.98;;
15929;SDS011;8064;51.142;4.780;2023-06-26T11:55:24;4.30;;;1.20;;
15929;SDS011;8064;51.142;4.780;2023-06-26T12:00:35;4.68;;;1.25;;
15929;SDS011;8064;51.142;4.780;2023-06-26T12:03:06;5.90;;;1.23;;
15929;SDS011;8064;51.142;4.780;2023-06-26T12:05:32;3.15;;;1.10;;
15929;SDS011;8064;51.142;4.780;2023-06-26T12:07:59;3.10;;;1.30;;
15929;SDS011;8064;51.142;4.780;2023-06-26T12:10:26;2.80;;;1.45;;
15929;SDS011;8064;51.142;4.780;2023-06-26T12:12:52;2.92;;;1.30;;
15929;SDS011;8064;51.142;4.780;2023-06-26T12:15:19;3.83;;;1.20;;
15929;SDS011;8064;51.142;4.780;2023-06-26T12:17:45;5.45;;;1.40;;
15929;SDS011;8064;51.142;4.780;2023-06-26T12:22:57;2.60;;;1.13;;
15929;SDS011;8064;51.142;4.780;2023-06-26T12:25:23;3.97;;;1.60;;
15929;SDS011;8064;51.142;4.780;2023-06-26T12:27:49;2.47;;;1.40;;
15929;SDS011;8064;51.142;4.780;2023-06-26T12:30:15;3.60;;;1.80;;
15929;SDS011;8064;51.142;4.780;2023-06-26T12:32:43;3.17;;;1.40;;
15929;SDS011;8064;51.142;4.780;2023-06-26T12:35:11;3.55;;;1.60;;
15929;SDS011;8064;51.142;4.780;2023-06-26T12:37:37;3.28;;;1.27;;
15929;SDS011;8064;51.142;4.780;2023-06-26T12:42:59;3.47;;;1.40;;
15929;SDS011;8064;51.142;4.780;2023-06-26T12:45:24;2.85;;;1.27;;
15929;SDS011;8064;51.142;4.780;2023-06-26T12:47:50;3.40;;;1.20;;
15929;SDS011;8064;51.142;4.780;2023-06-26T12:50:16;4.57;;;1.23;;
15929;SDS011;8064;51.142;4.780;2023-06-26T12:52:42;3.60;;;1.30;;
15929;SDS011;8064;51.142;4.780;2023-06-26T12:55:08;3.92;;;1.40;;
15929;SDS011;8064;51.142;4.780;2023-06-26T12:57:34;4.65;;;1.40;;
15929;SDS011;8064;51.142;4.780;2023-06-26T12:59:59;8.23;;;2.05;;
15929;SDS011;8064;51.142;4.780;2023-06-26T13:02:26;5.47;;;1.50;;
15929;SDS011;8064;51.142;4.780;2023-06-26T13:04:51;2.80;;;1.40;;
15929;SDS011;8064;51.142;4.780;2023-06-26T13:07:17;3.65;;;1.40;;
15929;SDS011;8064;51.142;4.780;2023-06-26T13:09:43;7.20;;;1.45;;
15929;SDS011;8064;51.142;4.780;2023-06-26T13:12:10;3.25;;;1.25;;
15929;SDS011;8064;51.142;4.780;2023-06-26T13:14:36;3.63;;;1.65;;
15929;SDS011;8064;51.142;4.780;2023-06-26T13:17:03;3.30;;;1.45;;
15929;SDS011;8064;51.142;4.780;2023-06-26T13:19:29;2.95;;;1.40;;
15929;SDS011;8064;51.142;4.780;2023-06-26T13:21:55;4.57;;;1.38;;
15929;SDS011;8064;51.142;4.780;2023-06-26T13:24:21;3.38;;;1.30;;
15929;SDS011;8064;51.142;4.780;2023-06-26T13:26:47;4.47;;;1.70;;
15929;SDS011;8064;51.142;4.780;2023-06-26T13:29:12;5.65;;;1.50;;
15929;SDS011;8064;51.142;4.780;2023-06-26T13:31:38;2.63;;;1.13;;
15929;SDS011;8064;51.142;4.780;2023-06-26T13:34:04;6.85;;;1.30;;
15929;SDS011;8064;51.142;4.780;2023-06-26T13:36:30;5.28;;;1.42;;
15929;SDS011;8064;51.142;4.780;2023-06-26T13:38:59;2.70;;;1.25;;
15929;SDS011;8064;51.142;4.780;2023-06-26T13:41:25;2.42;;;1.40;;
15929;SDS011;8064;51.142;4.780;2023-06-26T13:43:51;4.72;;;1.70;;
15929;SDS011;8064;51.142;4.780;2023-06-26T13:46:17;4.43;;;1.63;;
15929;SDS011;8064;51.142;4.780;2023-06-26T13:48:44;3.30;;;1.17;;
15929;SDS011;8064;51.142;4.780;2023-06-26T13:51:10;1.95;;;1.20;;
15929;SDS011;8064;51.142;4.780;2023-06-26T13:53:36;3.30;;;1.25;;
15929;SDS011;8064;51.142;4.780;2023-06-26T13:56:02;5.20;;;1.70;;
15929;SDS011;8064;51.142;4.780;2023-06-26T13:58:28;3.17;;;1.30;;
15929;SDS011;8064;51.142;4.780;2023-06-26T14:00:57;2.15;;;1.08;;
15929;SDS011;8064;51.142;4.780;2023-06-26T14:03:23;2.90;;;1.27;;
15929;SDS011;8064;51.142;4.780;2023-06-26T14:05:49;4.47;;;1.42;;
15929;SDS011;8064;51.142;4.780;2023-06-26T14:08:15;4.90;;;1.67;;
15929;SDS011;8064;51.142;4.780;2023-06-26T14:10:40;4.05;;;1.58;;
15929;SDS011;8064;51.142;4.780;2023-06-26T14:13:06;3.85;;;1.35;;
15929;SDS011;8064;51.142;4.780;2023-06-26T14:15:34;2.72;;;1.10;;
15929;SDS011;8064;51.142;4.780;2023-06-26T14:18:00;3.15;;;1.33;;
15929;SDS011;8064;51.142;4.780;2023-06-26T14:20:28;5.35;;;1.38;;
15929;SDS011;8064;51.142;4.780;2023-06-26T14:22:54;6.25;;;1.85;;
15929;SDS011;8064;51.142;4.780;2023-06-26T14:25:19;3.92;;;1.40;;
15929;SDS011;8064;51.142;4.780;2023-06-26T14:27:45;2.65;;;1.10;;
15929;SDS011;8064;51.142;4.780;2023-06-26T14:30:12;3.47;;;1.48;;
15929;SDS011;8064;51.142;4.780;2023-06-26T14:32:37;2.10;;;1.10;;
15929;SDS011;8064;51.142;4.780;2023-06-26T14:35:03;5.10;;;1.40;;
15929;SDS011;8064;51.142;4.780;2023-06-26T14:37:30;4.82;;;1.33;;
15929;SDS011;8064;51.142;4.780;2023-06-26T14:39:56;3.28;;;1.27;;
15929;SDS011;8064;51.142;4.780;2023-06-26T14:42:23;4.32;;;1.27;;
15929;SDS011;8064;51.142;4.780;2023-06-26T14:44:49;4.82;;;1.42;;
15929;SDS011;8064;51.142;4.780;2023-06-26T14:47:17;2.72;;;1.30;;
15929;SDS011;8064;51.142;4.780;2023-06-26T14:49:42;3.83;;;1.27;;
15929;SDS011;8064;51.142;4.780;2023-06-26T14:52:08;4.43;;;1.73;;
15929;SDS011;8064;51.142;4.780;2023-06-26T14:54:34;5.38;;;1.35;;
15929;SDS011;8064;51.142;4.780;2023-06-26T14:57:02;2.88;;;1.15;;
15929;SDS011;8064;51.142;4.780;2023-06-26T14:59:28;3.28;;;1.25;;
15929;SDS011;8064;51.142;4.780;2023-06-26T15:01:54;2.83;;;1.27;;
15929;SDS011;8064;51.142;4.780;2023-06-26T15:04:20;8.52;;;1.83;;
15929;SDS011;8064;51.142;4.780;2023-06-26T15:06:46;2.17;;;1.45;;
15929;SDS011;8064;51.142;4.780;2023-06-26T15:09:11;2.53;;;1.27;;
15929;SDS011;8064;51.142;4.780;2023-06-26T15:11:37;4.10;;;1.30;;
15929;SDS011;8064;51.142;4.780;2023-06-26T15:14:03;3.63;;;1.50;;
15929;SDS011;8064;51.142;4.780;2023-06-26T15:16:29;4.60;;;1.13;;
15929;SDS011;8064;51.142;4.780;2023-06-26T15:18:54;3.20;;;1.10;;
15929;SDS011;8064;51.142;4.780;2023-06-26T15:21:20;3.90;;;1.23;;
15929;SDS011;8064;51.142;4.780;2023-06-26T15:23:46;4.03;;;1.35;;
15929;SDS011;8064;51.142;4.780;2023-06-26T15:26:13;2.92;;;1.20;;
15929;SDS011;8064;51.142;4.780;2023-06-26T15:28:39;4.60;;;1.17;;
15929;SDS011;8064;51.142;4.780;2023-06-26T15:31:05;2.38;;;1.20;;
15929;SDS011;8064;51.142;4.780;2023-06-26T15:33:31;1.80;;;1.00;;